Stillman Valley, Illinois
Current Conditions -  °F | °C
As of 12:54 PM on Monday 20 Oct 2014 (Local Time) from KRFD Reporting Station
Scattered Clouds Scattered Clouds  
Wind Chill: 63°   Ceiling: Unl
Heat Index: 63°   Visibility: 10mi
Dew Point: 43°   Wind: 15mph
Humidity: 48%   Direction: 350°N
Pressure: 29.9"   Gusts: 24mph
Location:  42.11°N, 89.18°W
Report Text: KRFD 201754Z 35013G21KT 10SM SCT040 17/06 A2990 RMK AO2 SLP127 T01720061 10172 20072 50000
Loading
Personal Weather Stations






























Interactive Weather Map
Tropical Storm Tracking
New forecast layout! Learn more

10-Day Weather Forecast

Advertisements
Track Severe Weather on mobile